Aerbrava en el facebook Aerbrava en el twitter Aerbrava Google+ Aerbrava instagram Aerbrava en el youtube Aerbrava tumblr Aerbrava flikr Aerbrava pinterest
Aerbrava in English aerbrava en Español
Escola de Pilots
Telèfon 972234126 972 23 41 26
 
Aerbrava in English aerbrava en Español
Aerbrava - meteorologia

Informació meteorològica aeronàutica

 

En aquest apartat apareix la informació meteorològica aeronàutica que és utilitzada a les pràctiques dels alumnes de l’Escola de Pilots del nostre centre durant la seva formació, pel que pot no ser actual i s’hauria d’utilitzar pel seu propi compte i risc. AERBRAVA no es fa responsable del seu ús.

 

TEMPS ACTUAL

Satèl·lit Meteorològic

sat24.com

Servei Meteorològic de Catalunya

 

LEGE 130000Z 05003KT 9999 FEW018 BKN021 09/09 Q1014
LEGE 122330Z VRB02KT 9999 FEW018 BKN021 10/10 Q1014
LEGE 122300Z VRB02KT 9999 FEW018 BKN021 10/10 Q1015
LEGE 122230Z VRB02KT 9999 FEW018 BKN021 10/10 Q1015
LEGE 122200Z VRB01KT 9999 FEW018 BKN024 10/10 Q1015
LEGE 122130Z VRB02KT 9999 BKN021 10/10 Q1015
LEGE 122100Z 00000KT 9999 BKN021 10/10 Q1015
LEGE 122030Z 00000KT 9999 BKN021 09/09 Q1016
TAF LEGE 122300Z 1300/1324 VRB04KT 9999 BKN030 TX13/1313Z TN06/1306Z   PROB40   TEMPO 1300/1309 2000 RA BKN005   PROB40   TEMPO 1312/1319 3000 RA   TEMPO 1320/1324 30015G25KT

Aviation Weather

 
Aerbrava en el facebook Aerbrava en el twitter Aerbrava Google+ Aerbrava instagram Aerbrava en el youtube Aerbrava tumblr Aerbrava flikr Aerbrava pinterest

¡CSS Vàlid!